sensor_id;sensor_type;location;lat;lon;timestamp;P1;durP1;ratioP1;P2;durP2;ratioP2
63965;SDS011;50151;52.030;5.350;2022-12-18T00:01:32;50.42;;;21.90;;
63965;SDS011;50151;52.030;5.350;2022-12-18T00:04:02;56.55;;;23.05;;
63965;SDS011;50151;52.030;5.350;2022-12-18T00:06:31;55.92;;;22.92;;
63965;SDS011;50151;52.030;5.350;2022-12-18T00:08:59;46.08;;;21.00;;
63965;SDS011;50151;52.030;5.350;2022-12-18T00:11:28;50.70;;;22.60;;
63965;SDS011;50151;52.030;5.350;2022-12-18T00:13:56;48.42;;;21.33;;
63965;SDS011;50151;52.030;5.350;2022-12-18T00:16:24;57.17;;;22.23;;
63965;SDS011;50151;52.030;5.350;2022-12-18T00:18:53;55.70;;;24.05;;
63965;SDS011;50151;52.030;5.350;2022-12-18T00:21:21;58.83;;;24.65;;
63965;SDS011;50151;52.030;5.350;2022-12-18T00:23:49;58.17;;;23.75;;
63965;SDS011;50151;52.030;5.350;2022-12-18T00:26:19;55.25;;;23.50;;
63965;SDS011;50151;52.030;5.350;2022-12-18T00:28:48;60.22;;;22.25;;
63965;SDS011;50151;52.030;5.350;2022-12-18T00:31:16;52.95;;;23.27;;
63965;SDS011;50151;52.030;5.350;2022-12-18T00:33:45;59.50;;;24.92;;
63965;SDS011;50151;52.030;5.350;2022-12-18T00:36:16;55.65;;;22.60;;
63965;SDS011;50151;52.030;5.350;2022-12-18T00:38:45;63.63;;;25.65;;
63965;SDS011;50151;52.030;5.350;2022-12-18T00:41:12;56.17;;;23.27;;
63965;SDS011;50151;52.030;5.350;2022-12-18T00:44:00;61.63;;;24.23;;
63965;SDS011;50151;52.030;5.350;2022-12-18T00:46:27;58.85;;;23.35;;
63965;SDS011;50151;52.030;5.350;2022-12-18T00:48:54;54.88;;;24.13;;
63965;SDS011;50151;52.030;5.350;2022-12-18T00:51:21;52.15;;;20.92;;
63965;SDS011;50151;52.030;5.350;2022-12-18T00:53:47;54.90;;;22.90;;
63965;SDS011;50151;52.030;5.350;2022-12-18T00:56:14;51.75;;;22.30;;
63965;SDS011;50151;52.030;5.350;2022-12-18T00:58:41;45.95;;;19.70;;
63965;SDS011;50151;52.030;5.350;2022-12-18T01:01:07;44.75;;;20.00;;
63965;SDS011;50151;52.030;5.350;2022-12-18T01:03:34;49.28;;;20.75;;
63965;SDS011;50151;52.030;5.350;2022-12-18T01:06:05;47.20;;;21.98;;
63965;SDS011;50151;52.030;5.350;2022-12-18T01:08:38;41.17;;;17.52;;
63965;SDS011;50151;52.030;5.350;2022-12-18T01:11:09;55.72;;;23.42;;
63965;SDS011;50151;52.030;5.350;2022-12-18T01:13:40;46.60;;;20.38;;
63965;SDS011;50151;52.030;5.350;2022-12-18T01:16:08;50.08;;;20.95;;
63965;SDS011;50151;52.030;5.350;2022-12-18T01:18:37;46.03;;;19.10;;
63965;SDS011;50151;52.030;5.350;2022-12-18T01:21:10;51.58;;;20.48;;
63965;SDS011;50151;52.030;5.350;2022-12-18T01:23:41;48.03;;;21.08;;
63965;SDS011;50151;52.030;5.350;2022-12-18T01:26:09;51.17;;;19.77;;
63965;SDS011;50151;52.030;5.350;2022-12-18T01:28:38;55.63;;;20.55;;
63965;SDS011;50151;52.030;5.350;2022-12-18T01:31:16;44.50;;;18.70;;
63965;SDS011;50151;52.030;5.350;2022-12-18T01:33:45;51.72;;;20.48;;
63965;SDS011;50151;52.030;5.350;2022-12-18T01:36:16;55.75;;;20.55;;
63965;SDS011;50151;52.030;5.350;2022-12-18T01:38:45;44.53;;;19.23;;
63965;SDS011;50151;52.030;5.350;2022-12-18T01:41:12;50.42;;;20.88;;
63965;SDS011;50151;52.030;5.350;2022-12-18T01:43:45;49.88;;;22.30;;
63965;SDS011;50151;52.030;5.350;2022-12-18T01:46:23;49.03;;;20.52;;
63965;SDS011;50151;52.030;5.350;2022-12-18T01:48:56;49.30;;;20.60;;
63965;SDS011;50151;52.030;5.350;2022-12-18T01:51:24;49.15;;;20.80;;
63965;SDS011;50151;52.030;5.350;2022-12-18T01:53:53;50.10;;;20.13;;
63965;SDS011;50151;52.030;5.350;2022-12-18T01:56:20;48.65;;;19.92;;
63965;SDS011;50151;52.030;5.350;2022-12-18T01:58:52;47.85;;;21.02;;
63965;SDS011;50151;52.030;5.350;2022-12-18T02:01:28;45.05;;;19.20;;
63965;SDS011;50151;52.030;5.350;2022-12-18T02:04:10;51.45;;;20.25;;
63965;SDS011;50151;52.030;5.350;2022-12-18T02:06:46;48.83;;;20.33;;
63965;SDS011;50151;52.030;5.350;2022-12-18T02:11:56;40.75;;;17.65;;
63965;SDS011;50151;52.030;5.350;2022-12-18T02:14:38;39.08;;;16.92;;
63965;SDS011;50151;52.030;5.350;2022-12-18T02:17:18;48.20;;;19.92;;
63965;SDS011;50151;52.030;5.350;2022-12-18T02:20:16;45.58;;;19.17;;
63965;SDS011;50151;52.030;5.350;2022-12-18T02:22:47;50.67;;;20.92;;
63965;SDS011;50151;52.030;5.350;2022-12-18T02:25:40;46.58;;;19.75;;
63965;SDS011;50151;52.030;5.350;2022-12-18T02:28:29;41.10;;;17.60;;
63965;SDS011;50151;52.030;5.350;2022-12-18T02:30:58;48.22;;;20.08;;
63965;SDS011;50151;52.030;5.350;2022-12-18T02:33:31;48.58;;;19.77;;
63965;SDS011;50151;52.030;5.350;2022-12-18T02:36:01;39.95;;;18.58;;
63965;SDS011;50151;52.030;5.350;2022-12-18T02:38:29;50.03;;;19.77;;
63965;SDS011;50151;52.030;5.350;2022-12-18T02:40:57;42.35;;;19.00;;
63965;SDS011;50151;52.030;5.350;2022-12-18T02:43:24;38.95;;;18.60;;
63965;SDS011;50151;52.030;5.350;2022-12-18T02:45:55;40.38;;;19.17;;
63965;SDS011;50151;52.030;5.350;2022-12-18T02:48:27;41.40;;;19.98;;
63965;SDS011;50151;52.030;5.350;2022-12-18T02:51:24;42.85;;;18.58;;
63965;SDS011;50151;52.030;5.350;2022-12-18T02:54:13;44.28;;;19.45;;
63965;SDS011;50151;52.030;5.350;2022-12-18T02:56:53;45.15;;;19.05;;
63965;SDS011;50151;52.030;5.350;2022-12-18T02:59:28;48.17;;;19.15;;
63965;SDS011;50151;52.030;5.350;2022-12-18T03:02:19;43.08;;;18.70;;
63965;SDS011;50151;52.030;5.350;2022-12-18T03:04:57;45.63;;;18.00;;
63965;SDS011;50151;52.030;5.350;2022-12-18T03:07:34;41.13;;;18.08;;
63965;SDS011;50151;52.030;5.350;2022-12-18T03:10:25;45.28;;;18.30;;
63965;SDS011;50151;52.030;5.350;2022-12-18T03:13:02;39.42;;;17.23;;
63965;SDS011;50151;52.030;5.350;2022-12-18T03:15:36;40.88;;;18.45;;
63965;SDS011;50151;52.030;5.350;2022-12-18T03:18:10;36.05;;;17.80;;
63965;SDS011;50151;52.030;5.350;2022-12-18T03:20:42;38.40;;;17.30;;
63965;SDS011;50151;52.030;5.350;2022-12-18T03:23:13;35.40;;;17.02;;
63965;SDS011;50151;52.030;5.350;2022-12-18T03:25:44;40.35;;;17.85;;
63965;SDS011;50151;52.030;5.350;2022-12-18T03:28:13;44.00;;;17.45;;
63965;SDS011;50151;52.030;5.350;2022-12-18T03:30:43;40.50;;;17.75;;
63965;SDS011;50151;52.030;5.350;2022-12-18T03:33:14;39.50;;;16.98;;
63965;SDS011;50151;52.030;5.350;2022-12-18T03:35:47;38.78;;;17.80;;
63965;SDS011;50151;52.030;5.350;2022-12-18T03:38:14;38.90;;;17.65;;
63965;SDS011;50151;52.030;5.350;2022-12-18T03:40:44;41.05;;;17.55;;
63965;SDS011;50151;52.030;5.350;2022-12-18T03:52:21;36.58;;;16.30;;
63965;SDS011;50151;52.030;5.350;2022-12-18T03:55:01;35.65;;;15.27;;
63965;SDS011;50151;52.030;5.350;2022-12-18T03:57:31;33.20;;;15.23;;
63965;SDS011;50151;52.030;5.350;2022-12-18T04:00:08;32.75;;;16.17;;
63965;SDS011;50151;52.030;5.350;2022-12-18T04:02:37;32.00;;;16.15;;
63965;SDS011;50151;52.030;5.350;2022-12-18T04:05:09;33.28;;;16.35;;
63965;SDS011;50151;52.030;5.350;2022-12-18T04:07:37;34.70;;;15.77;;
63965;SDS011;50151;52.030;5.350;2022-12-18T04:10:05;29.83;;;14.50;;
63965;SDS011;50151;52.030;5.350;2022-12-18T04:12:33;36.13;;;16.20;;
63965;SDS011;50151;52.030;5.350;2022-12-18T04:15:00;29.13;;;14.68;;
63965;SDS011;50151;52.030;5.350;2022-12-18T04:17:27;32.42;;;14.98;;
63965;SDS011;50151;52.030;5.350;2022-12-18T04:19:53;25.77;;;13.35;;
63965;SDS011;50151;52.030;5.350;2022-12-18T04:22:20;33.83;;;15.07;;
63965;SDS011;50151;52.030;5.350;2022-12-18T04:24:47;29.05;;;14.30;;
63965;SDS011;50151;52.030;5.350;2022-12-18T04:27:13;27.35;;;14.07;;
63965;SDS011;50151;52.030;5.350;2022-12-18T04:29:40;30.92;;;13.63;;
63965;SDS011;50151;52.030;5.350;2022-12-18T04:32:07;29.95;;;13.18;;
63965;SDS011;50151;52.030;5.350;2022-12-18T04:34:34;27.60;;;13.75;;
63965;SDS011;50151;52.030;5.350;2022-12-18T04:37:01;28.02;;;14.05;;
63965;SDS011;50151;52.030;5.350;2022-12-18T04:39:28;25.95;;;12.48;;
63965;SDS011;50151;52.030;5.350;2022-12-18T04:41:55;26.90;;;12.77;;
63965;SDS011;50151;52.030;5.350;2022-12-18T04:44:22;30.83;;;14.10;;
63965;SDS011;50151;52.030;5.350;2022-12-18T04:46:49;26.23;;;13.50;;
63965;SDS011;50151;52.030;5.350;2022-12-18T04:49:15;22.73;;;12.48;;
63965;SDS011;50151;52.030;5.350;2022-12-18T04:51:42;29.70;;;12.88;;
63965;SDS011;50151;52.030;5.350;2022-12-18T04:54:09;26.17;;;13.15;;
63965;SDS011;50151;52.030;5.350;2022-12-18T04:56:35;26.92;;;11.85;;
63965;SDS011;50151;52.030;5.350;2022-12-18T04:59:02;27.63;;;12.90;;
63965;SDS011;50151;52.030;5.350;2022-12-18T05:01:29;24.75;;;12.10;;
63965;SDS011;50151;52.030;5.350;2022-12-18T05:04:00;24.02;;;12.82;;
63965;SDS011;50151;52.030;5.350;2022-12-18T05:06:27;22.95;;;11.73;;
63965;SDS011;50151;52.030;5.350;2022-12-18T05:08:54;23.98;;;13.48;;
63965;SDS011;50151;52.030;5.350;2022-12-18T05:11:21;22.13;;;11.32;;
63965;SDS011;50151;52.030;5.350;2022-12-18T05:13:48;25.98;;;13.00;;
63965;SDS011;50151;52.030;5.350;2022-12-18T05:16:15;23.38;;;12.45;;
63965;SDS011;50151;52.030;5.350;2022-12-18T05:18:42;21.38;;;12.10;;
63965;SDS011;50151;52.030;5.350;2022-12-18T05:21:09;23.27;;;12.05;;
63965;SDS011;50151;52.030;5.350;2022-12-18T05:23:35;24.10;;;12.13;;
63965;SDS011;50151;52.030;5.350;2022-12-18T05:26:04;27.10;;;12.93;;
63965;SDS011;50151;52.030;5.350;2022-12-18T05:28:32;19.30;;;10.40;;
63965;SDS011;50151;52.030;5.350;2022-12-18T05:31:01;21.13;;;10.80;;
63965;SDS011;50151;52.030;5.350;2022-12-18T05:33:30;21.15;;;10.38;;
63965;SDS011;50151;52.030;5.350;2022-12-18T05:36:00;22.48;;;11.93;;
63965;SDS011;50151;52.030;5.350;2022-12-18T05:38:30;20.98;;;11.20;;
63965;SDS011;50151;52.030;5.350;2022-12-18T05:40:58;25.65;;;12.23;;
63965;SDS011;50151;52.030;5.350;2022-12-18T05:43:25;24.25;;;12.15;;
63965;SDS011;50151;52.030;5.350;2022-12-18T05:45:53;22.25;;;11.32;;
63965;SDS011;50151;52.030;5.350;2022-12-18T05:48:20;23.45;;;10.68;;
63965;SDS011;50151;52.030;5.350;2022-12-18T05:50:47;24.58;;;11.38;;
63965;SDS011;50151;52.030;5.350;2022-12-18T05:53:16;20.55;;;11.63;;
63965;SDS011;50151;52.030;5.350;2022-12-18T05:55:45;23.45;;;11.43;;
63965;SDS011;50151;52.030;5.350;2022-12-18T05:58:12;24.27;;;11.35;;
63965;SDS011;50151;52.030;5.350;2022-12-18T06:00:41;17.38;;;9.23;;
63965;SDS011;50151;52.030;5.350;2022-12-18T06:03:10;21.58;;;11.35;;
63965;SDS011;50151;52.030;5.350;2022-12-18T06:05:39;21.25;;;10.40;;
63965;SDS011;50151;52.030;5.350;2022-12-18T06:08:07;21.42;;;10.48;;
63965;SDS011;50151;52.030;5.350;2022-12-18T06:10:35;21.60;;;10.30;;
63965;SDS011;50151;52.030;5.350;2022-12-18T06:13:02;23.25;;;11.40;;
63965;SDS011;50151;52.030;5.350;2022-12-18T06:15:30;24.35;;;11.20;;
63965;SDS011;50151;52.030;5.350;2022-12-18T06:17:56;24.50;;;10.93;;
63965;SDS011;50151;52.030;5.350;2022-12-18T06:20:23;22.98;;;11.45;;
63965;SDS011;50151;52.030;5.350;2022-12-18T06:22:56;19.25;;;8.38;;
63965;SDS011;50151;52.030;5.350;2022-12-18T06:25:23;21.33;;;10.35;;
63965;SDS011;50151;52.030;5.350;2022-12-18T06:27:50;23.65;;;10.65;;
63965;SDS011;50151;52.030;5.350;2022-12-18T06:30:16;18.48;;;9.50;;
63965;SDS011;50151;52.030;5.350;2022-12-18T06:32:43;22.30;;;10.63;;
63965;SDS011;50151;52.030;5.350;2022-12-18T06:35:13;17.63;;;10.25;;
63965;SDS011;50151;52.030;5.350;2022-12-18T06:37:40;19.00;;;10.20;;
63965;SDS011;50151;52.030;5.350;2022-12-18T06:40:07;19.55;;;10.23;;
63965;SDS011;50151;52.030;5.350;2022-12-18T06:42:34;20.88;;;9.73;;
63965;SDS011;50151;52.030;5.350;2022-12-18T06:45:00;19.95;;;10.25;;
63965;SDS011;50151;52.030;5.350;2022-12-18T06:47:27;18.70;;;10.27;;
63965;SDS011;50151;52.030;5.350;2022-12-18T06:49:54;20.23;;;10.77;;
63965;SDS011;50151;52.030;5.350;2022-12-18T06:52:20;18.38;;;10.20;;
63965;SDS011;50151;52.030;5.350;2022-12-18T06:54:48;21.17;;;9.57;;
63965;SDS011;50151;52.030;5.350;2022-12-18T06:57:15;19.33;;;10.88;;
63965;SDS011;50151;52.030;5.350;2022-12-18T06:59:42;18.15;;;8.98;;
63965;SDS011;50151;52.030;5.350;2022-12-18T07:02:10;16.42;;;9.27;;
63965;SDS011;50151;52.030;5.350;2022-12-18T07:04:38;19.80;;;10.02;;
63965;SDS011;50151;52.030;5.350;2022-12-18T07:07:05;18.02;;;9.82;;
63965;SDS011;50151;52.030;5.350;2022-12-18T07:09:32;17.88;;;9.55;;
63965;SDS011;50151;52.030;5.350;2022-12-18T07:11:59;17.20;;;10.60;;
63965;SDS011;50151;52.030;5.350;2022-12-18T07:14:25;17.98;;;9.57;;
63965;SDS011;50151;52.030;5.350;2022-12-18T07:16:52;15.88;;;9.15;;
63965;SDS011;50151;52.030;5.350;2022-12-18T07:19:19;22.25;;;9.30;;
63965;SDS011;50151;52.030;5.350;2022-12-18T07:21:46;17.95;;;10.07;;
63965;SDS011;50151;52.030;5.350;2022-12-18T07:24:13;18.65;;;10.27;;
63965;SDS011;50151;52.030;5.350;2022-12-18T07:26:40;19.38;;;11.38;;
63965;SDS011;50151;52.030;5.350;2022-12-18T07:29:07;16.67;;;9.68;;
63965;SDS011;50151;52.030;5.350;2022-12-18T07:31:34;21.45;;;10.07;;
63965;SDS011;50151;52.030;5.350;2022-12-18T07:34:00;15.63;;;9.60;;
63965;SDS011;50151;52.030;5.350;2022-12-18T07:36:27;17.52;;;9.55;;
63965;SDS011;50151;52.030;5.350;2022-12-18T07:38:54;18.88;;;9.80;;
63965;SDS011;50151;52.030;5.350;2022-12-18T07:41:21;19.15;;;9.30;;
63965;SDS011;50151;52.030;5.350;2022-12-18T07:43:48;20.48;;;10.73;;
63965;SDS011;50151;52.030;5.350;2022-12-18T07:46:15;17.20;;;9.93;;
63965;SDS011;50151;52.030;5.350;2022-12-18T07:48:42;16.10;;;8.82;;
63965;SDS011;50151;52.030;5.350;2022-12-18T07:51:14;18.20;;;9.57;;
63965;SDS011;50151;52.030;5.350;2022-12-18T07:53:42;17.00;;;9.65;;
63965;SDS011;50151;52.030;5.350;2022-12-18T07:56:09;15.82;;;9.23;;
63965;SDS011;50151;52.030;5.350;2022-12-18T07:58:56;18.23;;;10.77;;
63965;SDS011;50151;52.030;5.350;2022-12-18T08:01:23;16.67;;;9.52;;
63965;SDS011;50151;52.030;5.350;2022-12-18T08:03:50;16.58;;;8.73;;
63965;SDS011;50151;52.030;5.350;2022-12-18T08:06:17;17.50;;;10.68;;
63965;SDS011;50151;52.030;5.350;2022-12-18T08:08:50;20.90;;;10.35;;
63965;SDS011;50151;52.030;5.350;2022-12-18T08:11:21;15.80;;;9.05;;
63965;SDS011;50151;52.030;5.350;2022-12-18T08:13:48;17.98;;;7.95;;
63965;SDS011;50151;52.030;5.350;2022-12-18T08:16:15;31.17;;;15.25;;
63965;SDS011;50151;52.030;5.350;2022-12-18T08:18:43;16.17;;;8.77;;
63965;SDS011;50151;52.030;5.350;2022-12-18T08:21:10;18.50;;;10.50;;
63965;SDS011;50151;52.030;5.350;2022-12-18T08:23:42;17.58;;;10.13;;
63965;SDS011;50151;52.030;5.350;2022-12-18T08:26:10;18.92;;;11.35;;
63965;SDS011;50151;52.030;5.350;2022-12-18T08:28:37;21.48;;;10.77;;
63965;SDS011;50151;52.030;5.350;2022-12-18T08:31:04;17.83;;;9.57;;
63965;SDS011;50151;52.030;5.350;2022-12-18T08:33:32;14.30;;;9.15;;
63965;SDS011;50151;52.030;5.350;2022-12-18T08:35:59;18.17;;;9.48;;
63965;SDS011;50151;52.030;5.350;2022-12-18T08:38:26;18.63;;;9.80;;
63965;SDS011;50151;52.030;5.350;2022-12-18T08:41:03;18.23;;;10.43;;
63965;SDS011;50151;52.030;5.350;2022-12-18T08:43:32;17.65;;;9.60;;
63965;SDS011;50151;52.030;5.350;2022-12-18T08:46:17;19.67;;;9.80;;
63965;SDS011;50151;52.030;5.350;2022-12-18T08:48:45;17.15;;;10.18;;
63965;SDS011;50151;52.030;5.350;2022-12-18T08:51:12;17.75;;;9.55;;
63965;SDS011;50151;52.030;5.350;2022-12-18T08:53:39;18.92;;;9.80;;
63965;SDS011;50151;52.030;5.350;2022-12-18T08:56:07;17.65;;;9.60;;
63965;SDS011;50151;52.030;5.350;2022-12-18T08:58:33;15.50;;;9.30;;
63965;SDS011;50151;52.030;5.350;2022-12-18T09:01:04;17.73;;;9.80;;
63965;SDS011;50151;52.030;5.350;2022-12-18T09:03:33;17.30;;;9.13;;
63965;SDS011;50151;52.030;5.350;2022-12-18T09:06:00;17.95;;;9.32;;
63965;SDS011;50151;52.030;5.350;2022-12-18T09:08:26;16.25;;;9.10;;
63965;SDS011;50151;52.030;5.350;2022-12-18T09:10:53;20.38;;;9.10;;
63965;SDS011;50151;52.030;5.350;2022-12-18T09:13:21;18.27;;;9.02;;
63965;SDS011;50151;52.030;5.350;2022-12-18T09:15:49;17.98;;;9.57;;
63965;SDS011;50151;52.030;5.350;2022-12-18T09:18:18;20.25;;;11.10;;
63965;SDS011;50151;52.030;5.350;2022-12-18T09:20:46;21.45;;;10.38;;
63965;SDS011;50151;52.030;5.350;2022-12-18T09:23:13;18.25;;;10.32;;
63965;SDS011;50151;52.030;5.350;2022-12-18T09:25:40;16.30;;;9.68;;
63965;SDS011;50151;52.030;5.350;2022-12-18T09:28:11;19.30;;;10.10;;
63965;SDS011;50151;52.030;5.350;2022-12-18T09:30:41;15.77;;;9.02;;
63965;SDS011;50151;52.030;5.350;2022-12-18T09:33:09;15.18;;;9.55;;
63965;SDS011;50151;52.030;5.350;2022-12-18T09:35:39;14.48;;;8.23;;
63965;SDS011;50151;52.030;5.350;2022-12-18T09:38:07;18.35;;;9.75;;
63965;SDS011;50151;52.030;5.350;2022-12-18T09:40:44;18.98;;;10.23;;
63965;SDS011;50151;52.030;5.350;2022-12-18T09:43:18;16.10;;;9.30;;
63965;SDS011;50151;52.030;5.350;2022-12-18T09:45:52;16.40;;;9.23;;
63965;SDS011;50151;52.030;5.350;2022-12-18T09:48:27;14.40;;;8.52;;
63965;SDS011;50151;52.030;5.350;2022-12-18T09:51:04;17.40;;;9.35;;
63965;SDS011;50151;52.030;5.350;2022-12-18T09:53:37;20.45;;;10.48;;
63965;SDS011;50151;52.030;5.350;2022-12-18T09:56:09;17.05;;;9.52;;
63965;SDS011;50151;52.030;5.350;2022-12-18T09:58:49;17.33;;;8.48;;
63965;SDS011;50151;52.030;5.350;2022-12-18T10:01:28;19.55;;;9.90;;
63965;SDS011;50151;52.030;5.350;2022-12-18T10:04:09;20.48;;;9.45;;
63965;SDS011;50151;52.030;5.350;2022-12-18T10:06:42;15.40;;;8.77;;
63965;SDS011;50151;52.030;5.350;2022-12-18T10:14:46;19.13;;;9.18;;
63965;SDS011;50151;52.030;5.350;2022-12-18T10:26:22;19.58;;;9.90;;
63965;SDS011;50151;52.030;5.350;2022-12-18T10:28:29;60.53;;;20.70;;
63965;SDS011;50151;52.030;5.350;2022-12-18T10:30:57;18.13;;;9.88;;
63965;SDS011;50151;52.030;5.350;2022-12-18T10:33:27;32.78;;;15.70;;
63965;SDS011;50151;52.030;5.350;2022-12-18T10:35:56;19.65;;;10.40;;
63965;SDS011;50151;52.030;5.350;2022-12-18T10:38:30;24.75;;;12.95;;
63965;SDS011;50151;52.030;5.350;2022-12-18T10:40:59;22.25;;;10.27;;
63965;SDS011;50151;52.030;5.350;2022-12-18T10:46:44;17.27;;;9.30;;
63965;SDS011;50151;52.030;5.350;2022-12-18T10:49:19;19.50;;;9.27;;
63965;SDS011;50151;52.030;5.350;2022-12-18T10:51:49;17.20;;;10.25;;
63965;SDS011;50151;52.030;5.350;2022-12-18T10:56:47;15.15;;;8.85;;
63965;SDS011;50151;52.030;5.350;2022-12-18T10:59:15;17.58;;;9.95;;
63965;SDS011;50151;52.030;5.350;2022-12-18T11:01:55;14.10;;;8.02;;
63965;SDS011;50151;52.030;5.350;2022-12-18T11:04:24;18.23;;;8.93;;
63965;SDS011;50151;52.030;5.350;2022-12-18T11:07:00;20.90;;;8.48;;
63965;SDS011;50151;52.030;5.350;2022-12-18T11:09:31;15.88;;;9.05;;
63965;SDS011;50151;52.030;5.350;2022-12-18T11:12:00;13.45;;;7.90;;
63965;SDS011;50151;52.030;5.350;2022-12-18T11:14:34;16.38;;;9.10;;
63965;SDS011;50151;52.030;5.350;2022-12-18T11:17:19;18.10;;;9.98;;
63965;SDS011;50151;52.030;5.350;2022-12-18T11:19:58;18.10;;;10.27;;
63965;SDS011;50151;52.030;5.350;2022-12-18T11:24:59;15.00;;;8.60;;
63965;SDS011;50151;52.030;5.350;2022-12-18T11:28:02;19.13;;;10.05;;
63965;SDS011;50151;52.030;5.350;2022-12-18T11:30:32;15.32;;;7.72;;
63965;SDS011;50151;52.030;5.350;2022-12-18T11:35:42;22.00;;;11.80;;
63965;SDS011;50151;52.030;5.350;2022-12-18T11:38:31;19.70;;;10.02;;
63965;SDS011;50151;52.030;5.350;2022-12-18T11:41:14;16.60;;;9.30;;
63965;SDS011;50151;52.030;5.350;2022-12-18T11:44:13;15.13;;;8.32;;
63965;SDS011;50151;52.030;5.350;2022-12-18T11:46:47;19.98;;;10.38;;
63965;SDS011;50151;52.030;5.350;2022-12-18T11:49:24;19.55;;;10.65;;
63965;SDS011;50151;52.030;5.350;2022-12-18T11:51:55;17.75;;;9.85;;
63965;SDS011;50151;52.030;5.350;2022-12-18T11:54:58;20.00;;;9.90;;
63965;SDS011;50151;52.030;5.350;2022-12-18T11:57:35;18.00;;;10.27;;
63965;SDS011;50151;52.030;5.350;2022-12-18T12:00:18;19.85;;;10.77;;
63965;SDS011;50151;52.030;5.350;2022-12-18T12:03:07;16.65;;;10.15;;
63965;SDS011;50151;52.030;5.350;2022-12-18T12:05:47;18.85;;;8.32;;
63965;SDS011;50151;52.030;5.350;2022-12-18T12:13:48;26.67;;;12.45;;
63965;SDS011;50151;52.030;5.350;2022-12-18T12:24:49;26.17;;;14.07;;
63965;SDS011;50151;52.030;5.350;2022-12-18T12:30:08;27.88;;;15.63;;
63965;SDS011;50151;52.030;5.350;2022-12-18T12:33:01;17.15;;;9.40;;
63965;SDS011;50151;52.030;5.350;2022-12-18T12:35:46;15.55;;;9.50;;
63965;SDS011;50151;52.030;5.350;2022-12-18T12:38:37;14.80;;;9.20;;
63965;SDS011;50151;52.030;5.350;2022-12-18T12:41:18;15.93;;;8.13;;
63965;SDS011;50151;52.030;5.350;2022-12-18T12:44:13;15.63;;;9.63;;
63965;SDS011;50151;52.030;5.350;2022-12-18T12:46:43;17.00;;;8.55;;
63965;SDS011;50151;52.030;5.350;2022-12-18T12:49:14;16.23;;;9.27;;
63965;SDS011;50151;52.030;5.350;2022-12-18T12:51:44;15.70;;;9.35;;
63965;SDS011;50151;52.030;5.350;2022-12-18T12:54:17;17.17;;;8.27;;
63965;SDS011;50151;52.030;5.350;2022-12-18T12:56:49;16.75;;;9.30;;
63965;SDS011;50151;52.030;5.350;2022-12-18T12:59:22;16.55;;;9.95;;
63965;SDS011;50151;52.030;5.350;2022-12-18T13:02:13;18.15;;;9.55;;
63965;SDS011;50151;52.030;5.350;2022-12-18T13:04:58;18.42;;;9.77;;
63965;SDS011;50151;52.030;5.350;2022-12-18T13:07:29;11.00;;;5.65;;
63965;SDS011;50151;52.030;5.350;2022-12-18T13:12:56;17.75;;;9.27;;
63965;SDS011;50151;52.030;5.350;2022-12-18T13:18:13;19.52;;;10.18;;
63965;SDS011;50151;52.030;5.350;2022-12-18T13:25:51;19.35;;;9.00;;
63965;SDS011;50151;52.030;5.350;2022-12-18T13:28:54;22.02;;;9.50;;
63965;SDS011;50151;52.030;5.350;2022-12-18T13:34:17;17.60;;;9.25;;
63965;SDS011;50151;52.030;5.350;2022-12-18T13:36:55;18.48;;;9.63;;
63965;SDS011;50151;52.030;5.350;2022-12-18T13:39:43;16.17;;;9.25;;
63965;SDS011;50151;52.030;5.350;2022-12-18T13:44:56;18.52;;;9.55;;
63965;SDS011;50151;52.030;5.350;2022-12-18T13:47:25;19.98;;;9.90;;
63965;SDS011;50151;52.030;5.350;2022-12-18T13:50:25;16.48;;;9.27;;
63965;SDS011;50151;52.030;5.350;2022-12-18T13:53:00;15.23;;;8.73;;
63965;SDS011;50151;52.030;5.350;2022-12-18T13:55:28;17.75;;;9.57;;
63965;SDS011;50151;52.030;5.350;2022-12-18T13:58:05;20.05;;;10.82;;
63965;SDS011;50151;52.030;5.350;2022-12-18T14:00:32;16.15;;;9.10;;
63965;SDS011;50151;52.030;5.350;2022-12-18T14:02:59;21.88;;;11.15;;
63965;SDS011;50151;52.030;5.350;2022-12-18T14:05:28;19.70;;;10.88;;
63965;SDS011;50151;52.030;5.350;2022-12-18T14:08:01;18.25;;;10.48;;
63965;SDS011;50151;52.030;5.350;2022-12-18T14:10:39;21.45;;;10.98;;
63965;SDS011;50151;52.030;5.350;2022-12-18T14:13:19;18.88;;;10.32;;
63965;SDS011;50151;52.030;5.350;2022-12-18T14:15:56;20.42;;;10.48;;
63965;SDS011;50151;52.030;5.350;2022-12-18T14:18:38;19.00;;;10.35;;
63965;SDS011;50151;52.030;5.350;2022-12-18T14:21:17;19.48;;;10.13;;
63965;SDS011;50151;52.030;5.350;2022-12-18T14:23:46;20.65;;;9.73;;
63965;SDS011;50151;52.030;5.350;2022-12-18T14:26:21;21.73;;;11.63;;
63965;SDS011;50151;52.030;5.350;2022-12-18T14:28:56;18.55;;;10.25;;
63965;SDS011;50151;52.030;5.350;2022-12-18T14:31:25;16.45;;;9.43;;
63965;SDS011;50151;52.030;5.350;2022-12-18T14:33:54;22.60;;;10.15;;
63965;SDS011;50151;52.030;5.350;2022-12-18T14:36:25;19.35;;;10.65;;
63965;SDS011;50151;52.030;5.350;2022-12-18T14:38:54;18.60;;;10.20;;
63965;SDS011;50151;52.030;5.350;2022-12-18T14:41:25;17.92;;;10.43;;
63965;SDS011;50151;52.030;5.350;2022-12-18T14:43:53;18.30;;;9.52;;
63965;SDS011;50151;52.030;5.350;2022-12-18T14:46:54;25.02;;;10.60;;
63965;SDS011;50151;52.030;5.350;2022-12-18T14:49:20;17.35;;;8.50;;
63965;SDS011;50151;52.030;5.350;2022-12-18T14:52:02;17.05;;;9.23;;
63965;SDS011;50151;52.030;5.350;2022-12-18T14:54:32;18.70;;;10.50;;
63965;SDS011;50151;52.030;5.350;2022-12-18T14:57:02;17.70;;;9.15;;
63965;SDS011;50151;52.030;5.350;2022-12-18T14:59:29;20.48;;;10.70;;
63965;SDS011;50151;52.030;5.350;2022-12-18T15:04:42;15.82;;;9.25;;
63965;SDS011;50151;52.030;5.350;2022-12-18T15:07:17;16.27;;;9.07;;
63965;SDS011;50151;52.030;5.350;2022-12-18T15:10:00;23.35;;;10.38;;
63965;SDS011;50151;52.030;5.350;2022-12-18T15:20:33;16.40;;;9.57;;
63965;SDS011;50151;52.030;5.350;2022-12-18T15:23:16;17.45;;;10.00;;
63965;SDS011;50151;52.030;5.350;2022-12-18T15:25:44;23.13;;;11.63;;
63965;SDS011;50151;52.030;5.350;2022-12-18T15:28:17;22.13;;;10.63;;
63965;SDS011;50151;52.030;5.350;2022-12-18T15:30:59;19.98;;;10.88;;
63965;SDS011;50151;52.030;5.350;2022-12-18T15:33:32;19.13;;;10.77;;
63965;SDS011;50151;52.030;5.350;2022-12-18T15:36:05;18.92;;;10.88;;
63965;SDS011;50151;52.030;5.350;2022-12-18T15:38:35;20.58;;;11.20;;
63965;SDS011;50151;52.030;5.350;2022-12-18T15:41:02;21.38;;;9.82;;
63965;SDS011;50151;52.030;5.350;2022-12-18T15:43:29;23.80;;;11.73;;
63965;SDS011;50151;52.030;5.350;2022-12-18T15:46:03;19.90;;;10.63;;
63965;SDS011;50151;52.030;5.350;2022-12-18T15:48:45;19.48;;;10.65;;
63965;SDS011;50151;52.030;5.350;2022-12-18T15:51:17;20.83;;;11.98;;
63965;SDS011;50151;52.030;5.350;2022-12-18T15:53:46;23.88;;;11.45;;
63965;SDS011;50151;52.030;5.350;2022-12-18T15:56:15;19.77;;;10.57;;
63965;SDS011;50151;52.030;5.350;2022-12-18T15:59:02;19.65;;;10.68;;
63965;SDS011;50151;52.030;5.350;2022-12-18T16:01:33;22.83;;;12.27;;
63965;SDS011;50151;52.030;5.350;2022-12-18T16:04:08;24.50;;;13.15;;
63965;SDS011;50151;52.030;5.350;2022-12-18T16:06:41;24.35;;;12.48;;
63965;SDS011;50151;52.030;5.350;2022-12-18T16:09:28;16.20;;;9.27;;
63965;SDS011;50151;52.030;5.350;2022-12-18T16:11:55;22.25;;;12.35;;
63965;SDS011;50151;52.030;5.350;2022-12-18T16:14:30;22.58;;;11.52;;